Latest Weather Observations for Mandora

IDW60801

Issued at 11:02 am WST Saturday 30 April 2016 (issued every 30 minutes, with the page automatically refreshed every 10 minutes)

About weather observations | Map of weather stations | Latest weather observations for WA | Other Formats
Station Details ID: 004019 Name: MANDORA Lat: -19.74 Lon: 120.84 Height: 7.5 m
Data from the previous 72 hours. | See also: Recent months at Mandora
Date/Time
WST
Temp
°C
App
Temp
°C
Dew
Point
Rel
Hum
%
Delta-T
°C
Wind Press
QNH
hPa
Press
MSL
hPa
Rain
since 9 am
mm
Dir
 
Spd
km/h
Gust
km/h
Spd
kts
Gust
kts
30/11:00am 34.0 33.8 13.5 29 12.4 WSW 7 17 4 9 1012.5 1012.4 0.0
30/10:30am 33.0 32.9 15.0 33 11.1 W 9 15 5 8 1012.9 1012.8 0.0
30/10:00am 32.0 32.5 15.5 37 10.2 S 7 13 4 7 1013.3 1013.2 0.0
30/09:30am 30.7 31.6 18.4 47 7.9 SSW 11 19 6 10 1013.6 1013.5 0.0
30/09:00am 29.4 31.2 20.3 58 6.0 SSW 11 17 6 9 1013.5 1013.4 0.2
30/08:30am 28.4 30.3 21.4 66 4.7 SSW 13 20 7 11 1013.5 1013.4 0.2
30/08:00am 26.6 28.5 21.4 73 3.5 S 13 19 7 10 1013.4 1013.3 0.2
30/07:30am 24.7 26.8 21.0 80 2.4 SSE 11 19 6 10 1013.1 1013.0 0.2
30/07:00am 23.1 25.5 20.8 87 1.5 SSE 9 13 5 7 1012.8 1012.7 0.2
30/06:30am 22.6 24.9 20.7 89 1.2 S 9 11 5 6 1012.4 1012.3 0.2
30/06:00am 22.5 25.0 21.0 91 1.0 S 9 15 5 8 1012.4 1012.3 0.2
30/05:30am 22.6 25.2 21.2 92 0.9 S 9 13 5 7 1012.2 1012.1 0.2
30/05:00am 22.4 25.4 21.2 93 0.8 S 7 11 4 6 1011.9 1011.8 0.2
30/04:30am 22.5 25.2 21.3 93 0.8 S 9 11 5 6 1011.7 1011.6 0.2
30/04:00am 22.6 25.7 21.4 93 0.8 SSW 7 9 4 5 1011.5 1011.4 0.2
30/03:30am 22.5 25.2 21.3 93 0.8 SW 9 11 5 6 1011.1 1011.0 0.2
30/03:00am 22.8 25.6 21.6 93 0.8 WSW 9 13 5 7 1011.1 1011.0 0.2
30/02:30am 22.8 25.6 21.6 93 0.8 WSW 9 11 5 6 1011.0 1010.9 0.2
30/02:00am 22.4 24.9 21.0 92 0.9 WSW 9 11 5 6 1011.1 1011.0 0.2
30/01:30am 22.5 25.0 21.1 92 0.9 SW 9 11 5 6 1011.0 1010.9 0.2
30/01:00am 22.7 25.3 21.2 91 1.0 WSW 9 9 5 5 1011.1 1011.0 0.2
30/12:30am 22.8 25.5 21.3 91 1.0 WSW 9 11 5 6 1011.2 1011.1 0.2
30/12:00am 23.1 26.2 21.4 90 1.1 SSW 7 9 4 5 1011.5 1011.4 0.2
 
Date/Time
WST
Temp
°C
App
Temp
°C
Dew
Point
Rel
Hum
%
Delta-T
°C
Wind Press
QNH
hPa
Press
MSL
hPa
Rain
since 9 am
mm
Dir
 
Spd
km/h
Gust
km/h
Spd
kts
Gust
kts
29/11:30pm 23.4 26.5 21.5 89 1.3 SSW 7 9 4 5 1011.8 1011.7 0.2
29/11:00pm 24.0 27.5 21.9 88 1.4 SW 6 7 3 4 1012.0 1011.9 0.2
29/10:30pm 24.4 27.9 22.1 87 1.5 WSW 7 7 4 4 1012.2 1012.1 0.2
29/10:00pm 24.9 28.0 22.2 85 1.8 WNW 9 13 5 7 1012.4 1012.3 0.2
29/09:30pm 25.3 28.3 22.6 85 1.8 WNW 11 13 6 7 1012.4 1012.3 0.2
29/09:00pm 25.5 28.8 22.6 84 2.0 WNW 9 11 5 6 1012.4 1012.3 0.2
29/08:30pm 25.5 28.6 22.2 82 2.2 WNW 9 11 5 6 1012.5 1012.4 0.2
29/08:00pm 25.9 29.1 22.4 81 2.4 WNW 9 11 5 6 1012.3 1012.2 0.2
29/07:30pm 26.2 29.4 22.3 79 2.6 WNW 9 11 5 6 1011.9 1011.8 0.2
29/07:00pm 26.7 29.8 22.1 76 3.1 WNW 9 13 5 7 1011.5 1011.4 0.2
29/06:30pm 27.1 29.9 22.3 75 3.2 WNW 11 15 6 8 1011.4 1011.3 0.2
29/06:00pm 27.6 30.1 22.5 74 3.5 NW 13 15 7 8 1011.1 1011.0 0.2
29/05:30pm 28.3 30.4 22.5 71 3.9 NW 15 20 8 11 1010.8 1010.7 0.2
29/05:00pm 29.4 30.8 21.9 64 5.1 NW 17 24 9 13 1010.8 1010.7 0.2
29/04:30pm 30.2 30.6 20.7 56 6.3 NW 19 26 10 14 1010.6 1010.5 0.2
29/04:00pm 31.2 31.1 19.9 51 7.5 NW 20 26 11 14 1010.2 1010.1 0.2
29/03:30pm 32.0 31.8 19.3 47 8.3 NW 19 26 10 14 1009.9 1009.8 0.2
29/03:00pm 32.7 31.1 16.1 37 10.4 NW 19 26 10 14 1010.0 1009.9 0.2
29/02:30pm 33.2 31.3 15.2 33 11.2 NW 19 26 10 14 1009.8 1009.7 0.2
29/02:00pm 33.6 31.8 15.6 34 11.3 NW 19 26 10 14 1009.8 1009.7 0.2
29/01:30pm 33.6 32.2 16.5 36 10.8 NW 19 28 10 15 1010.0 1009.9 0.2
29/01:00pm 34.1 32.5 16.0 34 11.4 NW 19 26 10 14 1010.2 1010.1 0.2
29/12:30pm 34.5 33.0 15.4 32 11.9 NW 17 28 9 15 1010.3 1010.2 0.2
29/12:00pm 34.2 33.4 17.0 36 11.0 NW 17 24 9 13 1010.6 1010.5 0.2
29/11:30am 33.8 33.9 17.5 38 10.5 WNW 13 20 7 11 1010.9 1010.8 0.2
29/11:00am 34.4 35.5 18.0 37 10.6 WSW 9 17 5 9 1011.3 1011.2 0.2
29/10:30am 33.4 34.1 17.1 37 10.4 WSW 9 19 5 10 1011.9 1011.8 0.2
29/10:00am 32.1 33.6 19.0 45 8.6 W 9 15 5 8 1012.3 1012.2 0.2
29/09:30am 31.1 32.8 20.1 52 7.3 SSW 11 17 6 9 1012.4 1012.3 0.0
29/09:00am 30.0 33.4 22.7 65 5.0 SW 9 13 5 7 1012.5 1012.4 0.0
29/08:30am 28.5 33.2 24.3 78 2.9 S 7 11 4 6 1012.5 1012.4 0.0
29/08:00am 26.2 30.9 25.0 93 0.8 S 9 13 5 7 1012.3 1012.2 0.0
29/07:30am 24.7 29.0 24.2 97 0.3 S 9 15 5 8 1012.1 1012.0 0.0
29/07:00am 23.6 27.6 23.1 97 0.3 SSE 7 11 4 6 1011.8 1011.7 0.0
29/06:30am 23.1 26.8 22.6 97 0.3 S 7 9 4 5 1011.4 1011.3 0.0
29/06:00am 22.9 26.0 22.2 96 0.5 S 9 13 5 7 1011.2 1011.1 0.0
29/05:30am 20.2 23.3 19.4 95 0.5 SE 2 6 1 3 1011.0 1010.9 0.0
29/05:00am 20.7 23.2 19.9 95 0.5 SE 6 6 3 3 1010.6 1010.5 0.0
29/04:30am 20.9 23.5 20.1 95 0.5 SSW 6 7 3 4 1010.3 1010.2 0.0
29/04:00am 21.1 24.2 20.3 95 0.5 SW 4 6 2 3 1010.1 1010.0 0.0
29/03:30am 21.4 24.6 20.4 94 0.6 SW 4 9 2 5 1010.1 1010.0 0.0
29/03:00am 21.7 25.8 20.7 94 0.6 CALM 0 0 0 0 1010.1 1010.0 0.0
29/02:30am 22.0 26.2 21.0 94 0.7 CALM 0 0 0 0 1010.1 1010.0 0.0
29/02:00am 22.8 27.5 22.0 95 0.5 CALM 0 0 0 0 1010.2 1010.1 0.0
29/01:30am 23.2 28.1 22.4 95 0.5 CALM 0 0 0 0 1010.0 1009.9 0.0
29/01:00am 24.4 28.2 23.5 95 0.6 WSW 9 11 5 6 1010.1 1010.0 0.0
29/12:30am 24.8 28.5 23.9 95 0.6 WSW 11 15 6 8 1010.3 1010.2 0.0
29/12:00am 24.6 28.1 23.6 94 0.7 WSW 11 13 6 7 1010.3 1010.2 0.0
 
Date/Time
WST
Temp
°C
App
Temp
°C
Dew
Point
Rel
Hum
%
Delta-T
°C
Wind Press
QNH
hPa
Press
MSL
hPa
Rain
since 9 am
mm
Dir
 
Spd
km/h
Gust
km/h
Spd
kts
Gust
kts
28/11:30pm 24.4 28.2 23.4 94 0.7 WSW 9 11 5 6 1010.5 1010.4 0.0
28/11:00pm 24.1 27.6 22.9 93 0.8 W 9 9 5 5 1010.7 1010.6 0.0
28/10:30pm 24.4 28.5 23.2 93 0.8 WSW 7 9 4 5 1010.7 1010.6 0.0
28/10:00pm 25.2 29.3 24.0 93 0.8 W 9 13 5 7 1010.9 1010.8 0.0
28/09:30pm 24.7 28.4 23.3 92 1.0 W 9 9 5 5 1011.1 1011.0 0.0
28/09:00pm 24.8 29.0 23.2 91 1.1 NNW 6 7 3 4 1011.0 1010.9 0.0
28/08:30pm 25.6 29.6 23.8 90 1.2 W 9 9 5 5 1010.8 1010.7 0.0
28/08:00pm 25.8 30.2 23.8 89 1.4 WNW 7 11 4 6 1010.7 1010.6 0.0
28/07:30pm 26.1 30.1 23.8 87 1.6 NW 9 13 5 7 1010.6 1010.5 0.0
28/07:00pm 26.5 30.6 24.0 86 1.7 NW 9 11 5 6 1010.3 1010.2 0.0
28/06:30pm 26.5 29.8 23.2 82 2.2 NNW 11 11 6 6 1010.0 1009.9 0.0
28/06:00pm 27.5 31.3 23.5 79 2.7 NW 9 13 5 7 1010.0 1009.9 0.0
28/05:30pm 28.6 32.1 23.5 74 3.5 NW 11 20 6 11 1009.8 1009.7 0.0
28/05:00pm 29.8 32.8 23.3 68 4.5 NW 13 24 7 13 1009.6 1009.5 0.0
28/04:30pm 30.5 33.0 23.2 65 5.0 NW 15 22 8 12 1009.3 1009.2 0.0
28/04:00pm 30.9 32.7 22.5 61 5.7 NW 17 24 9 13 1009.1 1009.0 0.0
28/03:30pm 31.6 32.9 21.7 55 6.7 NW 17 24 9 13 1008.9 1008.8 0.0
28/03:00pm 32.1 32.5 21.0 52 7.5 NW 20 28 11 15 1008.8 1008.7 0.0
28/02:30pm 32.6 33.2 20.2 48 8.2 NW 17 26 9 14 1008.7 1008.6 0.0
28/02:00pm 33.1 33.7 20.3 47 8.5 NW 17 26 9 14 1008.9 1008.8 0.0
28/01:30pm 32.7 32.8 19.9 46 8.5 NW 19 26 10 14 1009.0 1008.9 0.0
28/01:00pm 33.2 33.2 19.7 45 8.9 NW 19 26 10 14 1009.2 1009.1 0.0
28/12:30pm 34.1 32.8 16.9 36 11.0 WNW 19 28 10 15 1009.5 1009.4 0.0
28/12:00pm 33.6 33.2 18.1 39 10.0 WNW 17 24 9 13 1009.8 1009.7 0.0
28/11:30am 32.9 33.8 20.8 49 8.1 NW 17 26 9 14 1010.4 1010.3 0.0
28/11:00am 33.0 34.7 20.9 49 8.1 WNW 13 20 7 11 1010.9 1010.8 0.0
28/10:30am 32.3 34.7 21.5 53 7.3 WNW 11 20 6 11 1011.2 1011.1 0.0
28/10:00am 32.0 33.8 20.3 50 7.8 W 11 19 6 10 1011.5 1011.4 0.0
28/09:30am 30.7 33.1 20.9 56 6.5 WSW 9 17 5 9 1011.8 1011.7 0.0
28/09:00am 29.2 31.9 22.2 66 4.7 W 11 15 6 8 1012.0 1011.9 0.0
28/08:30am 27.0 31.3 23.7 82 2.3 W 7 13 4 7 1011.8 1011.7 0.0
28/08:00am 25.0 29.8 24.5 97 0.3 WSW 7 9 4 5 1011.6 1011.5 0.0
28/07:30am 24.7 29.3 24.2 97 0.3 NNW 7 11 4 6 1011.7 1011.6 0.0
28/07:00am 22.1 25.2 21.4 96 0.5 NNW 7 9 4 5 1011.4 1011.3 0.0
28/06:30am 20.6 23.1 19.9 96 0.4 WNW 6 7 3 4 1010.9 1010.8 0.0
28/06:00am 21.1 23.7 20.4 96 0.5 WNW 7 7 4 4 1010.6 1010.5 0.0
28/05:30am 21.4 24.3 20.7 96 0.5 NNW 6 7 3 4 1010.4 1010.3 0.0
28/05:00am 22.7 25.7 22.0 96 0.5 WNW 9 15 5 8 1010.1 1010.0 0.0
28/04:30am 23.4 26.8 22.7 96 0.5 SW 9 13 5 7 1009.6 1009.5 0.0
28/04:00am 23.3 26.6 22.6 96 0.5 SW 9 11 5 6 1009.5 1009.4 0.0
28/03:30am 23.2 26.5 22.5 96 0.5 SW 9 13 5 7 1009.5 1009.4 0.0
28/03:00am 23.4 26.7 22.6 95 0.5 SW 9 13 5 7 1009.5 1009.4 0.0
28/02:30am 23.7 27.2 22.9 95 0.5 SW 9 13 5 7 1009.6 1009.5 0.0
28/02:00am 23.9 27.1 23.0 95 0.6 SW 11 15 6 8 1009.9 1009.8 0.0
28/01:30am 22.9 25.9 21.9 94 0.7 SSW 9 11 5 6 1009.9 1009.8 0.0
28/01:00am 21.9 24.6 20.7 93 0.8 SW 7 9 4 5 1010.0 1009.9 0.0
28/12:30am 23.5 27.2 22.5 94 0.7 WSW 7 9 4 5 1010.0 1009.9 0.0
28/12:00am 23.6 27.2 22.4 93 0.8 SW 7 9 4 5 1010.1 1010.0 0.0
 
Date/Time
WST
Temp
°C
App
Temp
°C
Dew
Point
Rel
Hum
%
Delta-T
°C
Wind Press
QNH
hPa
Press
MSL
hPa
Rain
since 9 am
mm
Dir
 
Spd
km/h
Gust
km/h
Spd
kts
Gust
kts
27/11:30pm 24.1 27.5 22.7 92 0.9 WSW 9 11 5 6 1010.2 1010.1 0.0
27/11:00pm 24.7 28.1 23.3 92 1.0 WSW 11 15 6 8 1010.3 1010.2 0.0
27/10:30pm 24.7 27.7 23.3 92 1.0 WSW 13 15 7 8 1010.5 1010.4 0.0
27/10:00pm 24.5 28.0 22.9 91 1.1 WSW 9 13 5 7 1010.6 1010.5 0.0
27/09:30pm 24.5 28.0 22.8 90 1.1 SW 9 13 5 7 1010.7 1010.6 0.0
27/09:00pm 24.6 28.3 22.5 88 1.4 SW 7 9 4 5 1010.8 1010.7 0.0
27/08:30pm 25.4 29.0 23.1 87 1.6 WSW 9 13 5 7 1010.7 1010.6 0.0
27/08:00pm 26.0 29.7 23.3 85 1.8 W 9 11 5 6 1010.6 1010.5 0.0
27/07:30pm 26.1 29.8 23.2 84 2.0 W 9 11 5 6 1010.3 1010.2 0.0
27/07:00pm 26.3 30.0 23.2 83 2.1 W 9 13 5 7 1010.0 1009.9 0.0
27/06:30pm 26.7 30.3 23.0 80 2.5 W 9 11 5 6 1009.7 1009.6 0.0
27/06:00pm 27.5 30.6 22.9 76 3.1 WNW 11 13 6 7 1009.3 1009.2 0.0
27/05:30pm 28.5 31.5 22.7 71 3.9 NW 11 17 6 9 1009.2 1009.1 0.0
27/05:00pm 29.7 31.6 22.7 66 4.8 NW 17 24 9 13 1009.0 1008.9 0.0
27/04:30pm 30.7 31.6 20.9 56 6.5 NW 17 22 9 12 1009.0 1008.9 0.0
27/04:00pm 30.7 31.5 20.6 54 6.7 NW 17 24 9 13 1008.8 1008.7 0.0
27/03:30pm 32.0 32.3 20.3 50 7.8 NW 19 26 10 14 1008.7 1008.6 0.0
27/03:00pm 32.7 32.6 19.6 46 8.6 NW 19 26 10 14 1008.7 1008.6 0.0
27/02:30pm 32.4 33.2 21.3 52 7.5 NW 19 28 10 15 1008.9 1008.8 0.0
27/02:00pm 32.7 33.8 21.2 50 7.8 NW 17 24 9 13 1009.2 1009.1 0.0
27/01:30pm 32.4 33.0 20.3 48 8.0 NW 17 24 9 13 1009.5 1009.4 0.0
27/01:00pm 33.1 33.9 20.6 47 8.4 NW 17 22 9 12 1010.0 1009.9 0.0
27/12:30pm 32.8 33.8 20.3 47 8.3 NW 15 20 8 11 1010.5 1010.4 0.0
27/12:00pm 32.6 33.2 19.5 46 8.6 NW 15 20 8 11 1010.9 1010.8 0.0
27/11:30am 32.5 33.8 20.1 48 8.2 NW 13 19 7 10 1011.3 1011.2 0.0

Other Formats:

Comma delimited format used in spreadsheet applications
http://www.bom.gov.au/fwo/IDW60801/IDW60801.94200.axf

JavaScript Object Notation format (JSON) in row-major order
http://www.bom.gov.au/fwo/IDW60801/IDW60801.94200.json